createdAt,value
2022-10-19T00:01:55.156Z,999.9
2022-10-19T00:05:36.367Z,999.9
2022-10-19T00:10:54.889Z,999.9
2022-10-19T00:16:14.081Z,999.9
2022-10-19T00:22:48.242Z,999.8
2022-10-19T00:26:53.111Z,999.8
2022-10-19T00:32:12.693Z,999.8
2022-10-19T00:38:46.867Z,999.7
2022-10-19T00:42:50.971Z,999.7
2022-10-19T00:48:10.129Z,999.7
2022-10-19T00:53:29.488Z,999.6
2022-10-19T01:00:03.645Z,999.5
2022-10-19T01:04:09.148Z,999.5
2022-10-19T01:09:26.030Z,999.5
2022-10-19T01:14:45.036Z,999.6
2022-10-19T01:20:04.602Z,999.6
2022-10-19T01:25:23.542Z,999.6
2022-10-19T01:30:42.329Z,999.6
2022-10-19T01:36:02.227Z,999.6
2022-10-19T01:41:21.781Z,999.5
2022-10-19T01:46:41.231Z,999.4
2022-10-19T01:52:00.777Z,999.4
2022-10-19T01:57:20.332Z,999.2
2022-10-19T01:57:46.415Z,999.2
2022-10-19T02:03:05.667Z,999.1
2022-10-19T02:09:39.854Z,999.1
2022-10-19T02:13:44.911Z,999.1
2022-10-19T02:19:03.659Z,999
2022-10-19T02:24:23.300Z,999
2022-10-19T02:29:41.293Z,999
2022-10-19T02:36:39.866Z,998.9
2022-10-19T02:40:20.418Z,998.9
2022-10-19T02:45:39.241Z,998.9
2022-10-19T02:50:58.779Z,998.9
2022-10-19T02:56:17.665Z,998.9
2022-10-19T03:01:36.848Z,998.9
2022-10-19T03:06:55.427Z,998.9
2022-10-19T03:12:14.860Z,999
2022-10-19T03:17:33.950Z,998.9
2022-10-19T03:28:11.352Z,998.9
2022-10-19T03:33:30.693Z,999
2022-10-19T03:38:49.608Z,998.9
2022-10-19T03:44:08.648Z,998.9
2022-10-19T03:49:28.084Z,998.9
2022-10-19T03:58:01.150Z,999
2022-10-19T04:05:26.340Z,999
2022-10-19T04:10:45.799Z,999
2022-10-19T04:16:04.563Z,999
2022-10-19T04:21:24.282Z,999
2022-10-19T04:26:43.811Z,999
2022-10-19T04:32:02.582Z,999
2022-10-19T04:37:21.953Z,999
2022-10-19T04:42:41.280Z,999
2022-10-19T04:48:00.817Z,999
2022-10-19T04:53:20.205Z,998.9
2022-10-19T04:58:39.630Z,998.9
2022-10-19T05:03:58.913Z,998.8
2022-10-19T05:09:18.496Z,998.8
2022-10-19T05:14:40.431Z,998.8
2022-10-19T05:19:56.941Z,998.9
2022-10-19T05:25:16.230Z,998.9
2022-10-19T05:30:35.936Z,999
2022-10-19T05:39:09.015Z,999
2022-10-19T05:41:13.996Z,999
2022-10-19T05:51:52.337Z,998.9
2022-10-19T05:57:11.152Z,999
2022-10-19T06:02:30.576Z,999
2022-10-19T06:07:50.326Z,998.9
2022-10-19T06:16:23.463Z,998.9
2022-10-19T06:20:38.805Z,998.9
2022-10-19T06:23:46.376Z,998.9
2022-10-19T06:29:05.450Z,998.9
2022-10-19T06:34:24.513Z,998.9
2022-10-19T06:40:58.607Z,998.9
2022-10-19T06:45:15.149Z,998.9
2022-10-19T06:50:23.870Z,999.1
2022-10-19T06:55:42.728Z,999.1
2022-10-19T07:01:02.139Z,999.2
2022-10-19T07:06:21.559Z,999.3
2022-10-19T07:11:45.611Z,999.3
2022-10-19T07:17:00.214Z,999.2
2022-10-19T07:22:23.211Z,999.2
2022-10-19T07:27:38.302Z,999.2
2022-10-19T07:32:57.028Z,999.2
2022-10-19T07:41:30.121Z,999.1
2022-10-19T07:50:33.293Z,999.1
2022-10-19T07:59:32.779Z,999.1
2022-10-19T08:05:01.983Z,999.2
2022-10-19T08:10:10.776Z,999.3
2022-10-19T08:15:30.300Z,999.3
2022-10-19T08:20:49.090Z,999.3
2022-10-19T08:26:08.411Z,999.3
2022-10-19T08:32:42.528Z,999.3
2022-10-19T08:36:48.108Z,999.4
2022-10-19T08:45:21.161Z,999.4
2022-10-19T08:47:24.904Z,999.3
2022-10-19T08:54:23.501Z,999.3
2022-10-19T09:03:27.278Z,999.3
2022-10-19T09:08:42.317Z,999.3
2022-10-19T09:14:04.939Z,999.3
2022-10-19T09:19:19.397Z,999.3
2022-10-19T09:24:38.225Z,999.3
2022-10-19T09:29:57.578Z,999.3
2022-10-19T09:35:16.782Z,999.3
2022-10-19T09:40:36.399Z,999.3
2022-10-19T09:45:54.456Z,999.2
2022-10-19T09:51:14.110Z,999.2
2022-10-19T09:56:32.668Z,999.2
2022-10-19T10:01:52.372Z,999.2
2022-10-19T10:07:12.117Z,999.2
2022-10-19T10:12:32.609Z,999.2
2022-10-19T10:17:51.614Z,999.1
2022-10-19T10:23:11.306Z,999.1
2022-10-19T10:28:30.263Z,999.1
2022-10-19T10:33:49.813Z,999.1
2022-10-19T10:39:08.841Z,999
2022-10-19T10:44:28.064Z,999
2022-10-19T10:49:46.992Z,998.9
2022-10-19T10:56:21.198Z,998.9
2022-10-19T11:00:36.596Z,998.7
2022-10-19T11:07:35.456Z,998.7
2022-10-19T11:16:23.345Z,998.6
2022-10-19T11:21:41.375Z,998.5
2022-10-19T11:28:39.932Z,998.5
2022-10-19T11:32:21.314Z,998.5
2022-10-19T11:37:45.564Z,998.4
2022-10-19T11:42:58.635Z,998.3
2022-10-19T11:48:17.631Z,998.3
2022-10-19T11:53:36.530Z,998.3
2022-10-19T11:58:55.790Z,998.1
2022-10-19T12:04:14.781Z,998
2022-10-19T12:09:33.565Z,998
2022-10-19T12:14:53.525Z,997.9
2022-10-19T12:20:14.822Z,997.8
2022-10-19T12:25:31.727Z,997.8
2022-10-19T12:30:51.370Z,997.8
2022-10-19T12:36:11.060Z,997.7
2022-10-19T12:41:30.161Z,997.7
2022-10-19T12:46:49.961Z,997.7
2022-10-19T12:52:08.206Z,997.7
2022-10-19T12:57:26.934Z,997.6
2022-10-19T13:02:45.298Z,997.5
2022-10-19T13:08:05.331Z,997.4
2022-10-19T13:13:23.476Z,997.4
2022-10-19T13:18:42.378Z,997.4
2022-10-19T13:24:02.053Z,997.3
2022-10-19T13:29:21.682Z,997.3
2022-10-19T13:34:41.949Z,997.3
2022-10-19T13:40:00.526Z,997.3
2022-10-19T13:45:20.891Z,997.3
2022-10-19T13:50:39.118Z,997.3
2022-10-19T13:55:59.111Z,997.2
2022-10-19T14:01:18.239Z,997.2
2022-10-19T14:06:36.963Z,997.1
2022-10-19T14:11:57.255Z,997
2022-10-19T14:17:19.900Z,996.9
2022-10-19T14:22:35.915Z,996.7
2022-10-19T14:27:55.457Z,996.7
2022-10-19T14:33:14.796Z,996.7
2022-10-19T14:38:34.195Z,996.6
2022-10-19T14:45:32.795Z,996.6
2022-10-19T14:49:13.742Z,996.5
2022-10-19T14:54:32.715Z,996.5
2022-10-19T14:59:51.087Z,996.6
2022-10-19T15:05:10.427Z,996.6
2022-10-19T15:10:32.400Z,996.6
2022-10-19T15:17:03.541Z,996.6
2022-10-19T15:21:12.422Z,996.5
2022-10-19T15:26:26.924Z,996.6
2022-10-19T15:31:46.663Z,996.5
2022-10-19T15:37:07.273Z,996.5
2022-10-19T15:42:24.572Z,996.5
2022-10-19T15:47:42.814Z,996.5
2022-10-19T15:53:01.840Z,996.4
2022-10-19T15:58:22.159Z,996.4
2022-10-19T16:03:41.674Z,996.4
2022-10-19T16:09:00.760Z,996.3
2022-10-19T16:14:20.249Z,996.3
2022-10-19T16:19:39.083Z,996.3
2022-10-19T16:24:58.522Z,996.2
2022-10-19T16:30:17.482Z,996.1
2022-10-19T16:35:36.382Z,996.1
2022-10-19T16:40:56.514Z,996.1
2022-10-19T16:46:14.880Z,996.1
2022-10-19T16:51:34.097Z,996.1
2022-10-19T16:56:53.777Z,996.2
2022-10-19T17:03:27.960Z,996.1
2022-10-19T17:07:31.418Z,996.1
2022-10-19T17:12:50.821Z,996.1
2022-10-19T17:18:09.369Z,996
2022-10-19T17:23:28.447Z,996
2022-10-19T17:28:48.471Z,996
2022-10-19T17:34:07.968Z,996
2022-10-19T17:39:28.874Z,996.1
2022-10-19T17:44:45.800Z,996.2
2022-10-19T17:50:05.290Z,996.2
2022-10-19T17:55:24.539Z,996.1
2022-10-19T18:00:43.671Z,996.1
2022-10-19T18:06:02.888Z,996.1
2022-10-19T18:11:30.771Z,996.1
2022-10-19T18:16:39.972Z,996.2
2022-10-19T18:21:59.619Z,996.1
2022-10-19T18:27:18.400Z,996
2022-10-19T18:32:38.272Z,995.9
2022-10-19T18:37:56.959Z,995.9
2022-10-19T18:43:16.506Z,995.9
2022-10-19T18:48:36.314Z,996
2022-10-19T18:53:55.793Z,995.9
2022-10-19T18:59:15.489Z,996
2022-10-19T19:04:34.957Z,995.9
2022-10-19T19:09:53.970Z,995.8
2022-10-19T19:15:13.142Z,995.8
2022-10-19T19:20:32.826Z,995.7
2022-10-19T19:27:31.984Z,995.6
2022-10-19T19:31:13.121Z,995.6
2022-10-19T19:36:32.671Z,995.5
2022-10-19T19:41:51.417Z,995.5
2022-10-19T19:47:10.631Z,995.5
2022-10-19T19:52:29.551Z,995.4
2022-10-19T19:52:57.665Z,995.4
2022-10-19T19:58:17.199Z,995.3
2022-10-19T20:03:36.437Z,995.4
2022-10-19T20:08:55.968Z,995.4
2022-10-19T20:14:14.724Z,995.4
2022-10-19T20:19:32.715Z,995.5
2022-10-19T20:24:52.098Z,995.6
2022-10-19T20:30:11.117Z,995.6
2022-10-19T20:35:30.563Z,995.7
2022-10-19T20:42:04.768Z,995.6
2022-10-19T20:46:11.018Z,995.6
2022-10-19T20:51:30.847Z,995.7
2022-10-19T20:56:48.299Z,995.6
2022-10-19T21:02:07.806Z,995.6
2022-10-19T21:07:26.904Z,995.6
2022-10-19T21:12:46.079Z,995.5
2022-10-19T21:18:05.674Z,995.4
2022-10-19T21:23:25.264Z,995.2
2022-10-19T21:28:44.774Z,995.3
2022-10-19T21:34:03.945Z,995.2
2022-10-19T21:39:23.685Z,995.2
2022-10-19T21:44:42.608Z,995.3
2022-10-19T21:51:16.784Z,995.2
2022-10-19T21:55:22.328Z,995.1
2022-10-19T22:00:41.722Z,995.2
2022-10-19T22:05:59.641Z,995.3
2022-10-19T22:11:18.526Z,995.3
2022-10-19T22:16:37.476Z,995.3
2022-10-19T22:21:57.122Z,995.3
2022-10-19T22:27:16.397Z,995.2
2022-10-19T22:32:36.256Z,995.2
2022-10-19T22:37:55.146Z,995.2
2022-10-19T22:43:14.661Z,995.1
2022-10-19T22:48:33.090Z,995
2022-10-19T22:53:52.718Z,994.8
2022-10-19T22:59:12.108Z,994.9
2022-10-19T23:04:32.167Z,994.7
2022-10-19T23:09:51.312Z,994.8
2022-10-19T23:15:10.650Z,994.7
2022-10-19T23:20:29.772Z,994.7
2022-10-19T23:25:49.323Z,994.7
2022-10-19T23:31:08.418Z,994.8
2022-10-19T23:36:27.488Z,994.8
2022-10-19T23:41:46.908Z,994.8
2022-10-19T23:47:05.844Z,994.7
2022-10-19T23:52:25.216Z,994.7
2022-10-19T23:57:44.707Z,994.7
